sensor_id;sensor_type;location;lat;lon;timestamp;P1;durP1;ratioP1;P2;durP2;ratioP2
12597;SDS011;6364;53.590;9.956;2023-07-30T00:01:09;19.95;;;11.82;;
12597;SDS011;6364;53.590;9.956;2023-07-30T00:03:34;17.17;;;11.60;;
12597;SDS011;6364;53.590;9.956;2023-07-30T00:06:00;14.75;;;11.38;;
12597;SDS011;6364;53.590;9.956;2023-07-30T00:08:25;17.63;;;12.05;;
12597;SDS011;6364;53.590;9.956;2023-07-30T00:10:51;18.10;;;12.52;;
12597;SDS011;6364;53.590;9.956;2023-07-30T00:13:16;12.48;;;10.45;;
12597;SDS011;6364;53.590;9.956;2023-07-30T00:15:42;12.10;;;9.35;;
12597;SDS011;6364;53.590;9.956;2023-07-30T00:18:07;11.38;;;8.32;;
12597;SDS011;6364;53.590;9.956;2023-07-30T00:20:36;10.73;;;7.90;;
12597;SDS011;6364;53.590;9.956;2023-07-30T00:23:01;9.90;;;6.75;;
12597;SDS011;6364;53.590;9.956;2023-07-30T00:25:27;8.27;;;7.03;;
12597;SDS011;6364;53.590;9.956;2023-07-30T00:27:52;7.63;;;6.38;;
12597;SDS011;6364;53.590;9.956;2023-07-30T00:30:17;10.25;;;6.30;;
12597;SDS011;6364;53.590;9.956;2023-07-30T00:32:43;9.35;;;6.03;;
12597;SDS011;6364;53.590;9.956;2023-07-30T00:35:09;5.88;;;5.18;;
12597;SDS011;6364;53.590;9.956;2023-07-30T00:37:35;5.90;;;5.30;;
12597;SDS011;6364;53.590;9.956;2023-07-30T00:40:01;8.95;;;5.78;;
12597;SDS011;6364;53.590;9.956;2023-07-30T00:42:28;7.45;;;5.72;;
12597;SDS011;6364;53.590;9.956;2023-07-30T00:44:53;7.45;;;5.75;;
12597;SDS011;6364;53.590;9.956;2023-07-30T00:47:19;7.47;;;5.70;;
12597;SDS011;6364;53.590;9.956;2023-07-30T00:49:44;8.15;;;6.15;;
12597;SDS011;6364;53.590;9.956;2023-07-30T00:52:10;9.23;;;6.38;;
12597;SDS011;6364;53.590;9.956;2023-07-30T00:54:35;7.82;;;5.78;;
12597;SDS011;6364;53.590;9.956;2023-07-30T00:57:01;8.82;;;5.53;;
12597;SDS011;6364;53.590;9.956;2023-07-30T00:59:27;9.25;;;6.15;;
12597;SDS011;6364;53.590;9.956;2023-07-30T01:01:52;9.05;;;6.15;;
12597;SDS011;6364;53.590;9.956;2023-07-30T01:04:18;10.38;;;6.70;;
12597;SDS011;6364;53.590;9.956;2023-07-30T01:06:44;8.88;;;6.32;;
12597;SDS011;6364;53.590;9.956;2023-07-30T01:09:09;12.50;;;7.15;;
12597;SDS011;6364;53.590;9.956;2023-07-30T01:11:35;9.85;;;7.25;;
12597;SDS011;6364;53.590;9.956;2023-07-30T01:14:02;9.77;;;7.90;;
12597;SDS011;6364;53.590;9.956;2023-07-30T01:16:28;11.00;;;7.47;;
12597;SDS011;6364;53.590;9.956;2023-07-30T01:18:53;11.38;;;8.00;;
12597;SDS011;6364;53.590;9.956;2023-07-30T01:21:19;11.77;;;7.80;;
12597;SDS011;6364;53.590;9.956;2023-07-30T01:23:44;11.38;;;8.45;;
12597;SDS011;6364;53.590;9.956;2023-07-30T01:26:15;12.40;;;7.97;;
12597;SDS011;6364;53.590;9.956;2023-07-30T01:28:46;10.32;;;8.63;;
12597;SDS011;6364;53.590;9.956;2023-07-30T01:31:14;11.23;;;9.13;;
12597;SDS011;6364;53.590;9.956;2023-07-30T01:33:41;13.75;;;8.73;;
12597;SDS011;6364;53.590;9.956;2023-07-30T01:36:08;13.00;;;8.93;;
12597;SDS011;6364;53.590;9.956;2023-07-30T01:38:34;12.50;;;9.45;;
12597;SDS011;6364;53.590;9.956;2023-07-30T01:41:00;11.77;;;9.55;;
12597;SDS011;6364;53.590;9.956;2023-07-30T01:43:25;12.13;;;9.40;;
12597;SDS011;6364;53.590;9.956;2023-07-30T01:45:51;11.27;;;9.07;;
12597;SDS011;6364;53.590;9.956;2023-07-30T01:48:16;12.25;;;9.00;;
12597;SDS011;6364;53.590;9.956;2023-07-30T01:50:41;13.57;;;9.40;;
12597;SDS011;6364;53.590;9.956;2023-07-30T01:53:08;14.10;;;9.60;;
12597;SDS011;6364;53.590;9.956;2023-07-30T01:55:33;13.57;;;9.95;;
12597;SDS011;6364;53.590;9.956;2023-07-30T01:57:58;14.88;;;9.23;;
12597;SDS011;6364;53.590;9.956;2023-07-30T02:00:24;13.35;;;9.60;;
12597;SDS011;6364;53.590;9.956;2023-07-30T02:02:49;13.43;;;9.40;;
12597;SDS011;6364;53.590;9.956;2023-07-30T02:05:14;14.90;;;9.55;;
12597;SDS011;6364;53.590;9.956;2023-07-30T02:07:40;14.43;;;10.43;;
12597;SDS011;6364;53.590;9.956;2023-07-30T02:10:05;15.65;;;10.40;;
12597;SDS011;6364;53.590;9.956;2023-07-30T02:12:30;13.95;;;10.80;;
12597;SDS011;6364;53.590;9.956;2023-07-30T02:14:56;15.15;;;10.27;;
12597;SDS011;6364;53.590;9.956;2023-07-30T02:17:21;13.30;;;10.00;;
12597;SDS011;6364;53.590;9.956;2023-07-30T02:19:46;13.05;;;10.48;;
12597;SDS011;6364;53.590;9.956;2023-07-30T02:22:11;12.80;;;10.77;;
12597;SDS011;6364;53.590;9.956;2023-07-30T02:24:37;15.95;;;10.82;;
12597;SDS011;6364;53.590;9.956;2023-07-30T02:27:02;14.30;;;10.90;;
12597;SDS011;6364;53.590;9.956;2023-07-30T02:29:28;15.07;;;11.90;;
12597;SDS011;6364;53.590;9.956;2023-07-30T02:31:53;17.20;;;10.98;;
12597;SDS011;6364;53.590;9.956;2023-07-30T02:34:19;18.70;;;11.30;;
12597;SDS011;6364;53.590;9.956;2023-07-30T02:36:44;15.40;;;11.88;;
12597;SDS011;6364;53.590;9.956;2023-07-30T02:39:09;18.55;;;12.75;;
12597;SDS011;6364;53.590;9.956;2023-07-30T02:41:34;19.65;;;12.10;;
12597;SDS011;6364;53.590;9.956;2023-07-30T02:44:00;16.88;;;12.15;;
12597;SDS011;6364;53.590;9.956;2023-07-30T02:46:25;17.38;;;12.63;;
12597;SDS011;6364;53.590;9.956;2023-07-30T02:48:50;18.02;;;12.95;;
12597;SDS011;6364;53.590;9.956;2023-07-30T02:51:16;17.67;;;13.10;;
12597;SDS011;6364;53.590;9.956;2023-07-30T02:53:42;18.92;;;13.77;;
12597;SDS011;6364;53.590;9.956;2023-07-30T02:56:08;18.50;;;14.52;;
12597;SDS011;6364;53.590;9.956;2023-07-30T02:58:33;22.30;;;14.45;;
12597;SDS011;6364;53.590;9.956;2023-07-30T03:01:08;21.30;;;14.45;;
12597;SDS011;6364;53.590;9.956;2023-07-30T03:03:34;19.50;;;14.43;;
12597;SDS011;6364;53.590;9.956;2023-07-30T03:05:59;23.65;;;15.18;;
12597;SDS011;6364;53.590;9.956;2023-07-30T03:08:25;23.55;;;14.57;;
12597;SDS011;6364;53.590;9.956;2023-07-30T03:10:50;20.90;;;14.48;;
12597;SDS011;6364;53.590;9.956;2023-07-30T03:13:15;21.60;;;15.07;;
12597;SDS011;6364;53.590;9.956;2023-07-30T03:15:41;27.15;;;16.13;;
12597;SDS011;6364;53.590;9.956;2023-07-30T03:18:06;23.75;;;15.40;;
12597;SDS011;6364;53.590;9.956;2023-07-30T03:20:31;23.73;;;15.25;;
12597;SDS011;6364;53.590;9.956;2023-07-30T03:22:57;21.27;;;15.25;;
12597;SDS011;6364;53.590;9.956;2023-07-30T03:25:22;23.40;;;15.57;;
12597;SDS011;6364;53.590;9.956;2023-07-30T03:27:47;27.88;;;15.80;;
12597;SDS011;6364;53.590;9.956;2023-07-30T03:30:13;22.10;;;15.68;;
12597;SDS011;6364;53.590;9.956;2023-07-30T03:32:38;24.52;;;15.88;;
12597;SDS011;6364;53.590;9.956;2023-07-30T03:35:03;23.23;;;15.57;;
12597;SDS011;6364;53.590;9.956;2023-07-30T03:37:29;26.30;;;16.38;;
12597;SDS011;6364;53.590;9.956;2023-07-30T03:39:54;25.75;;;16.25;;
12597;SDS011;6364;53.590;9.956;2023-07-30T03:42:20;28.65;;;15.63;;
12597;SDS011;6364;53.590;9.956;2023-07-30T03:44:45;24.38;;;15.73;;
12597;SDS011;6364;53.590;9.956;2023-07-30T03:47:10;23.67;;;15.82;;
12597;SDS011;6364;53.590;9.956;2023-07-30T03:49:36;25.63;;;16.10;;
12597;SDS011;6364;53.590;9.956;2023-07-30T03:52:02;23.85;;;15.20;;
12597;SDS011;6364;53.590;9.956;2023-07-30T03:54:27;24.88;;;16.30;;
12597;SDS011;6364;53.590;9.956;2023-07-30T03:56:53;23.35;;;15.75;;
12597;SDS011;6364;53.590;9.956;2023-07-30T03:59:18;24.92;;;16.05;;
12597;SDS011;6364;53.590;9.956;2023-07-30T04:01:43;28.13;;;16.48;;
12597;SDS011;6364;53.590;9.956;2023-07-30T04:04:09;23.02;;;14.88;;
12597;SDS011;6364;53.590;9.956;2023-07-30T04:06:34;21.70;;;15.05;;
12597;SDS011;6364;53.590;9.956;2023-07-30T04:08:59;32.58;;;16.23;;
12597;SDS011;6364;53.590;9.956;2023-07-30T04:11:24;26.73;;;15.48;;
12597;SDS011;6364;53.590;9.956;2023-07-30T04:13:50;24.48;;;15.73;;
12597;SDS011;6364;53.590;9.956;2023-07-30T04:16:15;23.98;;;15.38;;
12597;SDS011;6364;53.590;9.956;2023-07-30T04:18:40;22.30;;;15.35;;
12597;SDS011;6364;53.590;9.956;2023-07-30T04:21:06;24.17;;;15.07;;
12597;SDS011;6364;53.590;9.956;2023-07-30T04:23:31;25.75;;;15.70;;
12597;SDS011;6364;53.590;9.956;2023-07-30T04:25:56;23.77;;;14.65;;
12597;SDS011;6364;53.590;9.956;2023-07-30T04:28:22;25.77;;;14.68;;
12597;SDS011;6364;53.590;9.956;2023-07-30T04:30:47;30.50;;;15.07;;
12597;SDS011;6364;53.590;9.956;2023-07-30T04:33:12;27.02;;;14.77;;
12597;SDS011;6364;53.590;9.956;2023-07-30T04:35:39;24.60;;;14.90;;
12597;SDS011;6364;53.590;9.956;2023-07-30T04:38:05;23.33;;;14.32;;
12597;SDS011;6364;53.590;9.956;2023-07-30T04:40:30;25.60;;;15.40;;
12597;SDS011;6364;53.590;9.956;2023-07-30T04:42:55;22.13;;;14.45;;
12597;SDS011;6364;53.590;9.956;2023-07-30T04:45:20;28.90;;;14.75;;
12597;SDS011;6364;53.590;9.956;2023-07-30T04:47:46;22.50;;;13.50;;
12597;SDS011;6364;53.590;9.956;2023-07-30T04:50:11;27.85;;;14.82;;
12597;SDS011;6364;53.590;9.956;2023-07-30T04:52:36;25.88;;;14.45;;
12597;SDS011;6364;53.590;9.956;2023-07-30T04:55:02;31.15;;;14.73;;
12597;SDS011;6364;53.590;9.956;2023-07-30T04:57:27;29.95;;;13.88;;
12597;SDS011;6364;53.590;9.956;2023-07-30T04:59:52;20.52;;;13.00;;
12597;SDS011;6364;53.590;9.956;2023-07-30T05:02:18;20.90;;;13.07;;
12597;SDS011;6364;53.590;9.956;2023-07-30T05:04:43;23.85;;;13.15;;
12597;SDS011;6364;53.590;9.956;2023-07-30T05:07:09;22.02;;;13.27;;
12597;SDS011;6364;53.590;9.956;2023-07-30T05:09:34;21.67;;;13.48;;
12597;SDS011;6364;53.590;9.956;2023-07-30T05:11:59;22.15;;;12.38;;
12597;SDS011;6364;53.590;9.956;2023-07-30T05:14:24;20.88;;;13.18;;
12597;SDS011;6364;53.590;9.956;2023-07-30T05:16:50;29.02;;;12.77;;
12597;SDS011;6364;53.590;9.956;2023-07-30T05:19:15;23.88;;;12.75;;
12597;SDS011;6364;53.590;9.956;2023-07-30T05:21:41;22.88;;;12.63;;
12597;SDS011;6364;53.590;9.956;2023-07-30T05:24:07;21.05;;;12.70;;
12597;SDS011;6364;53.590;9.956;2023-07-30T05:26:32;22.38;;;11.77;;
12597;SDS011;6364;53.590;9.956;2023-07-30T05:28:57;24.27;;;11.27;;
12597;SDS011;6364;53.590;9.956;2023-07-30T05:31:23;26.42;;;12.75;;
12597;SDS011;6364;53.590;9.956;2023-07-30T05:33:48;18.80;;;11.60;;
12597;SDS011;6364;53.590;9.956;2023-07-30T05:36:13;20.40;;;11.40;;
12597;SDS011;6364;53.590;9.956;2023-07-30T05:38:39;21.85;;;11.52;;
12597;SDS011;6364;53.590;9.956;2023-07-30T05:41:04;23.10;;;12.07;;
12597;SDS011;6364;53.590;9.956;2023-07-30T05:43:29;25.50;;;12.07;;
12597;SDS011;6364;53.590;9.956;2023-07-30T05:45:54;22.75;;;11.27;;
12597;SDS011;6364;53.590;9.956;2023-07-30T05:48:20;19.33;;;11.27;;
12597;SDS011;6364;53.590;9.956;2023-07-30T05:50:45;20.45;;;11.00;;
12597;SDS011;6364;53.590;9.956;2023-07-30T05:53:10;22.98;;;11.25;;
12597;SDS011;6364;53.590;9.956;2023-07-30T05:55:36;24.02;;;11.20;;
12597;SDS011;6364;53.590;9.956;2023-07-30T05:58:01;21.15;;;12.15;;
12597;SDS011;6364;53.590;9.956;2023-07-30T06:00:26;23.83;;;11.32;;
12597;SDS011;6364;53.590;9.956;2023-07-30T06:02:52;22.88;;;11.23;;
12597;SDS011;6364;53.590;9.956;2023-07-30T06:05:17;23.52;;;11.32;;
12597;SDS011;6364;53.590;9.956;2023-07-30T06:07:42;30.90;;;10.68;;
12597;SDS011;6364;53.590;9.956;2023-07-30T06:10:08;21.75;;;11.35;;
12597;SDS011;6364;53.590;9.956;2023-07-30T06:12:33;22.30;;;11.43;;
12597;SDS011;6364;53.590;9.956;2023-07-30T06:14:58;23.10;;;10.98;;
12597;SDS011;6364;53.590;9.956;2023-07-30T06:17:24;20.30;;;11.30;;
12597;SDS011;6364;53.590;9.956;2023-07-30T06:19:49;21.23;;;10.82;;
12597;SDS011;6364;53.590;9.956;2023-07-30T06:22:14;21.02;;;11.13;;
12597;SDS011;6364;53.590;9.956;2023-07-30T06:24:40;22.48;;;9.82;;
12597;SDS011;6364;53.590;9.956;2023-07-30T06:27:05;20.52;;;10.77;;
12597;SDS011;6364;53.590;9.956;2023-07-30T06:29:31;21.30;;;10.60;;
12597;SDS011;6364;53.590;9.956;2023-07-30T06:31:56;25.92;;;10.35;;
12597;SDS011;6364;53.590;9.956;2023-07-30T06:34:21;25.92;;;12.40;;
12597;SDS011;6364;53.590;9.956;2023-07-30T06:36:46;26.60;;;13.48;;
12597;SDS011;6364;53.590;9.956;2023-07-30T06:39:12;25.80;;;14.02;;
12597;SDS011;6364;53.590;9.956;2023-07-30T06:41:37;25.08;;;13.63;;
12597;SDS011;6364;53.590;9.956;2023-07-30T06:44:02;33.78;;;15.32;;
12597;SDS011;6364;53.590;9.956;2023-07-30T06:46:28;24.02;;;14.02;;
12597;SDS011;6364;53.590;9.956;2023-07-30T06:48:53;35.50;;;15.10;;
12597;SDS011;6364;53.590;9.956;2023-07-30T06:51:19;22.67;;;14.27;;
12597;SDS011;6364;53.590;9.956;2023-07-30T06:53:45;27.40;;;15.07;;
12597;SDS011;6364;53.590;9.956;2023-07-30T06:56:10;30.80;;;15.48;;
12597;SDS011;6364;53.590;9.956;2023-07-30T06:58:36;33.85;;;14.95;;
12597;SDS011;6364;53.590;9.956;2023-07-30T07:01:01;34.33;;;15.20;;
12597;SDS011;6364;53.590;9.956;2023-07-30T07:03:26;29.75;;;14.50;;
12597;SDS011;6364;53.590;9.956;2023-07-30T07:05:52;28.13;;;13.77;;
12597;SDS011;6364;53.590;9.956;2023-07-30T07:08:21;24.27;;;13.43;;
12597;SDS011;6364;53.590;9.956;2023-07-30T07:10:46;27.42;;;13.65;;
12597;SDS011;6364;53.590;9.956;2023-07-30T07:13:11;28.38;;;13.93;;
12597;SDS011;6364;53.590;9.956;2023-07-30T07:15:40;31.10;;;14.15;;
12597;SDS011;6364;53.590;9.956;2023-07-30T07:18:05;27.73;;;13.05;;
12597;SDS011;6364;53.590;9.956;2023-07-30T07:20:31;35.65;;;13.82;;
12597;SDS011;6364;53.590;9.956;2023-07-30T07:22:56;31.65;;;14.15;;
12597;SDS011;6364;53.590;9.956;2023-07-30T07:25:21;34.35;;;13.32;;
12597;SDS011;6364;53.590;9.956;2023-07-30T07:27:46;24.15;;;12.40;;
12597;SDS011;6364;53.590;9.956;2023-07-30T07:30:12;34.00;;;14.70;;
12597;SDS011;6364;53.590;9.956;2023-07-30T07:32:37;28.48;;;13.60;;
12597;SDS011;6364;53.590;9.956;2023-07-30T07:35:03;27.02;;;13.20;;
12597;SDS011;6364;53.590;9.956;2023-07-30T07:37:30;34.42;;;13.45;;
12597;SDS011;6364;53.590;9.956;2023-07-30T07:39:56;24.05;;;11.90;;
12597;SDS011;6364;53.590;9.956;2023-07-30T07:42:22;24.50;;;11.70;;
12597;SDS011;6364;53.590;9.956;2023-07-30T07:44:47;28.13;;;12.52;;
12597;SDS011;6364;53.590;9.956;2023-07-30T07:47:12;33.45;;;12.38;;
12597;SDS011;6364;53.590;9.956;2023-07-30T07:49:38;26.52;;;13.40;;
12597;SDS011;6364;53.590;9.956;2023-07-30T07:52:03;28.00;;;13.38;;
12597;SDS011;6364;53.590;9.956;2023-07-30T07:54:28;29.05;;;12.43;;
12597;SDS011;6364;53.590;9.956;2023-07-30T07:56:54;26.15;;;10.75;;
12597;SDS011;6364;53.590;9.956;2023-07-30T07:59:19;28.05;;;11.88;;
12597;SDS011;6364;53.590;9.956;2023-07-30T08:01:44;30.95;;;11.15;;
12597;SDS011;6364;53.590;9.956;2023-07-30T08:04:10;29.25;;;11.52;;
12597;SDS011;6364;53.590;9.956;2023-07-30T08:06:35;20.23;;;9.63;;
12597;SDS011;6364;53.590;9.956;2023-07-30T08:09:00;26.05;;;9.50;;
12597;SDS011;6364;53.590;9.956;2023-07-30T08:11:26;24.63;;;9.05;;
12597;SDS011;6364;53.590;9.956;2023-07-30T08:13:51;26.15;;;10.27;;
12597;SDS011;6364;53.590;9.956;2023-07-30T08:16:16;26.25;;;10.18;;
12597;SDS011;6364;53.590;9.956;2023-07-30T08:18:42;24.48;;;10.15;;
12597;SDS011;6364;53.590;9.956;2023-07-30T08:21:07;28.30;;;9.75;;
12597;SDS011;6364;53.590;9.956;2023-07-30T08:23:33;23.90;;;9.68;;
12597;SDS011;6364;53.590;9.956;2023-07-30T08:25:59;26.25;;;10.02;;
12597;SDS011;6364;53.590;9.956;2023-07-30T08:28:24;16.60;;;9.10;;
12597;SDS011;6364;53.590;9.956;2023-07-30T08:30:49;20.10;;;9.82;;
12597;SDS011;6364;53.590;9.956;2023-07-30T08:33:14;19.90;;;8.68;;
12597;SDS011;6364;53.590;9.956;2023-07-30T08:35:40;21.95;;;8.70;;
12597;SDS011;6364;53.590;9.956;2023-07-30T08:38:05;26.58;;;8.02;;
12597;SDS011;6364;53.590;9.956;2023-07-30T08:40:31;22.75;;;7.30;;
12597;SDS011;6364;53.590;9.956;2023-07-30T08:42:56;19.23;;;6.18;;
12597;SDS011;6364;53.590;9.956;2023-07-30T08:45:22;18.55;;;6.60;;
12597;SDS011;6364;53.590;9.956;2023-07-30T08:47:48;22.27;;;6.10;;
12597;SDS011;6364;53.590;9.956;2023-07-30T08:50:13;12.15;;;5.35;;
12597;SDS011;6364;53.590;9.956;2023-07-30T08:52:39;21.48;;;6.20;;
12597;SDS011;6364;53.590;9.956;2023-07-30T08:55:04;19.38;;;5.07;;
12597;SDS011;6364;53.590;9.956;2023-07-30T08:57:31;21.77;;;5.85;;
12597;SDS011;6364;53.590;9.956;2023-07-30T09:00:04;21.88;;;5.45;;
12597;SDS011;6364;53.590;9.956;2023-07-30T09:02:43;17.67;;;5.00;;
12597;SDS011;6364;53.590;9.956;2023-07-30T09:05:11;14.07;;;4.63;;
12597;SDS011;6364;53.590;9.956;2023-07-30T09:07:36;22.55;;;5.00;;
12597;SDS011;6364;53.590;9.956;2023-07-30T09:10:01;21.15;;;4.68;;
12597;SDS011;6364;53.590;9.956;2023-07-30T09:12:31;20.88;;;5.00;;
12597;SDS011;6364;53.590;9.956;2023-07-30T09:14:57;16.10;;;4.70;;
12597;SDS011;6364;53.590;9.956;2023-07-30T09:17:22;20.67;;;4.75;;
12597;SDS011;6364;53.590;9.956;2023-07-30T09:19:48;14.20;;;4.05;;
12597;SDS011;6364;53.590;9.956;2023-07-30T09:22:19;20.10;;;4.60;;
12597;SDS011;6364;53.590;9.956;2023-07-30T09:24:52;17.08;;;4.40;;
12597;SDS011;6364;53.590;9.956;2023-07-30T09:27:24;18.73;;;4.30;;
12597;SDS011;6364;53.590;9.956;2023-07-30T09:29:54;14.32;;;4.45;;
12597;SDS011;6364;53.590;9.956;2023-07-30T09:32:28;16.77;;;4.57;;
12597;SDS011;6364;53.590;9.956;2023-07-30T09:34:54;14.68;;;3.97;;
12597;SDS011;6364;53.590;9.956;2023-07-30T09:37:20;16.00;;;4.25;;
12597;SDS011;6364;53.590;9.956;2023-07-30T09:39:47;16.10;;;4.25;;
12597;SDS011;6364;53.590;9.956;2023-07-30T09:42:13;14.35;;;4.43;;
12597;SDS011;6364;53.590;9.956;2023-07-30T09:44:38;17.38;;;4.55;;
12597;SDS011;6364;53.590;9.956;2023-07-30T09:47:04;18.40;;;4.47;;
12597;SDS011;6364;53.590;9.956;2023-07-30T09:49:31;16.25;;;4.70;;
12597;SDS011;6364;53.590;9.956;2023-07-30T09:51:59;19.75;;;4.45;;
12597;SDS011;6364;53.590;9.956;2023-07-30T09:54:25;14.07;;;4.20;;
12597;SDS011;6364;53.590;9.956;2023-07-30T09:56:50;19.45;;;4.75;;
12597;SDS011;6364;53.590;9.956;2023-07-30T09:59:16;15.02;;;4.70;;
12597;SDS011;6364;53.590;9.956;2023-07-30T10:01:43;14.70;;;4.60;;
12597;SDS011;6364;53.590;9.956;2023-07-30T10:04:09;13.93;;;4.18;;
12597;SDS011;6364;53.590;9.956;2023-07-30T10:06:37;20.00;;;4.78;;
12597;SDS011;6364;53.590;9.956;2023-07-30T10:09:04;15.98;;;4.20;;
12597;SDS011;6364;53.590;9.956;2023-07-30T10:11:30;19.67;;;4.32;;
12597;SDS011;6364;53.590;9.956;2023-07-30T10:13:56;16.05;;;5.22;;
12597;SDS011;6364;53.590;9.956;2023-07-30T10:16:25;16.02;;;5.03;;
12597;SDS011;6364;53.590;9.956;2023-07-30T10:18:55;18.17;;;4.95;;
12597;SDS011;6364;53.590;9.956;2023-07-30T10:21:22;16.45;;;4.68;;
12597;SDS011;6364;53.590;9.956;2023-07-30T10:26:27;15.20;;;4.45;;
12597;SDS011;6364;53.590;9.956;2023-07-30T10:29:09;12.90;;;4.72;;
12597;SDS011;6364;53.590;9.956;2023-07-30T10:31:38;10.38;;;3.92;;
12597;SDS011;6364;53.590;9.956;2023-07-30T10:34:08;20.27;;;4.77;;
12597;SDS011;6364;53.590;9.956;2023-07-30T10:41:38;14.80;;;4.65;;
12597;SDS011;6364;53.590;9.956;2023-07-30T10:44:03;11.98;;;4.22;;
12597;SDS011;6364;53.590;9.956;2023-07-30T10:46:29;16.48;;;4.63;;
12597;SDS011;6364;53.590;9.956;2023-07-30T10:48:54;13.43;;;4.00;;
12597;SDS011;6364;53.590;9.956;2023-07-30T10:51:20;11.27;;;3.97;;
12597;SDS011;6364;53.590;9.956;2023-07-30T10:53:48;6.15;;;3.30;;
12597;SDS011;6364;53.590;9.956;2023-07-30T10:56:20;11.40;;;3.35;;
12597;SDS011;6364;53.590;9.956;2023-07-30T10:58:49;13.90;;;3.58;;
12597;SDS011;6364;53.590;9.956;2023-07-30T11:01:15;11.27;;;3.20;;
12597;SDS011;6364;53.590;9.956;2023-07-30T11:03:41;8.35;;;2.90;;
12597;SDS011;6364;53.590;9.956;2023-07-30T11:06:06;19.65;;;3.70;;
12597;SDS011;6364;53.590;9.956;2023-07-30T11:08:39;11.73;;;3.30;;
12597;SDS011;6364;53.590;9.956;2023-07-30T11:11:06;11.73;;;3.13;;
12597;SDS011;6364;53.590;9.956;2023-07-30T11:13:36;11.02;;;3.60;;
12597;SDS011;6364;53.590;9.956;2023-07-30T11:16:03;8.88;;;3.40;;
12597;SDS011;6364;53.590;9.956;2023-07-30T11:18:32;9.00;;;2.85;;
12597;SDS011;6364;53.590;9.956;2023-07-30T11:21:05;13.05;;;3.63;;
12597;SDS011;6364;53.590;9.956;2023-07-30T11:23:32;9.68;;;2.70;;
12597;SDS011;6364;53.590;9.956;2023-07-30T11:25:57;12.05;;;3.20;;
12597;SDS011;6364;53.590;9.956;2023-07-30T11:31:08;14.50;;;2.88;;
12597;SDS011;6364;53.590;9.956;2023-07-30T11:33:44;9.13;;;2.90;;
12597;SDS011;6364;53.590;9.956;2023-07-30T11:36:12;8.60;;;2.83;;
12597;SDS011;6364;53.590;9.956;2023-07-30T11:38:39;9.18;;;2.85;;
12597;SDS011;6364;53.590;9.956;2023-07-30T11:41:05;11.60;;;3.30;;
12597;SDS011;6364;53.590;9.956;2023-07-30T11:43:35;9.15;;;3.00;;
12597;SDS011;6364;53.590;9.956;2023-07-30T11:48:33;11.85;;;2.90;;
12597;SDS011;6364;53.590;9.956;2023-07-30T11:50:59;9.32;;;2.50;;
12597;SDS011;6364;53.590;9.956;2023-07-30T11:53:43;9.52;;;2.55;;
12597;SDS011;6364;53.590;9.956;2023-07-30T11:56:16;10.15;;;2.75;;
12597;SDS011;6364;53.590;9.956;2023-07-30T11:58:45;8.48;;;2.47;;
12597;SDS011;6364;53.590;9.956;2023-07-30T12:01:11;8.10;;;2.33;;
12597;SDS011;6364;53.590;9.956;2023-07-30T12:03:37;9.10;;;2.40;;
12597;SDS011;6364;53.590;9.956;2023-07-30T12:06:05;10.80;;;2.63;;
12597;SDS011;6364;53.590;9.956;2023-07-30T12:08:31;8.38;;;2.35;;
12597;SDS011;6364;53.590;9.956;2023-07-30T12:11:01;9.15;;;2.33;;
12597;SDS011;6364;53.590;9.956;2023-07-30T12:13:28;5.60;;;2.47;;
12597;SDS011;6364;53.590;9.956;2023-07-30T12:15:53;6.07;;;2.50;;
12597;SDS011;6364;53.590;9.956;2023-07-30T12:18:19;10.43;;;2.63;;
12597;SDS011;6364;53.590;9.956;2023-07-30T12:20:46;7.80;;;2.20;;
12597;SDS011;6364;53.590;9.956;2023-07-30T12:23:11;6.25;;;2.28;;
12597;SDS011;6364;53.590;9.956;2023-07-30T12:25:37;5.28;;;2.22;;
12597;SDS011;6364;53.590;9.956;2023-07-30T12:28:03;6.57;;;2.50;;
12597;SDS011;6364;53.590;9.956;2023-07-30T12:30:28;9.02;;;2.88;;
12597;SDS011;6364;53.590;9.956;2023-07-30T12:32:54;10.80;;;2.75;;
12597;SDS011;6364;53.590;9.956;2023-07-30T12:35:19;9.10;;;2.50;;
12597;SDS011;6364;53.590;9.956;2023-07-30T12:37:45;8.88;;;2.40;;
12597;SDS011;6364;53.590;9.956;2023-07-30T12:40:10;6.45;;;2.40;;
12597;SDS011;6364;53.590;9.956;2023-07-30T12:42:36;6.85;;;2.63;;
12597;SDS011;6364;53.590;9.956;2023-07-30T12:45:01;5.80;;;2.35;;
12597;SDS011;6364;53.590;9.956;2023-07-30T12:47:26;9.48;;;2.28;;
12597;SDS011;6364;53.590;9.956;2023-07-30T12:49:51;9.70;;;2.53;;
12597;SDS011;6364;53.590;9.956;2023-07-30T12:52:17;10.18;;;3.00;;
12597;SDS011;6364;53.590;9.956;2023-07-30T12:54:42;8.18;;;2.75;;
12597;SDS011;6364;53.590;9.956;2023-07-30T12:57:07;9.98;;;2.60;;
12597;SDS011;6364;53.590;9.956;2023-07-30T12:59:33;8.68;;;2.97;;
12597;SDS011;6364;53.590;9.956;2023-07-30T13:01:58;10.52;;;3.42;;
12597;SDS011;6364;53.590;9.956;2023-07-30T13:04:24;12.48;;;3.45;;
12597;SDS011;6364;53.590;9.956;2023-07-30T13:06:51;7.68;;;2.90;;
12597;SDS011;6364;53.590;9.956;2023-07-30T13:09:17;12.98;;;3.38;;
12597;SDS011;6364;53.590;9.956;2023-07-30T13:11:42;8.05;;;2.80;;
12597;SDS011;6364;53.590;9.956;2023-07-30T13:14:07;5.25;;;2.00;;
12597;SDS011;6364;53.590;9.956;2023-07-30T13:16:33;7.35;;;1.92;;
12597;SDS011;6364;53.590;9.956;2023-07-30T13:18:58;6.75;;;2.03;;
12597;SDS011;6364;53.590;9.956;2023-07-30T13:21:23;7.35;;;2.13;;
12597;SDS011;6364;53.590;9.956;2023-07-30T13:23:49;7.00;;;1.83;;
12597;SDS011;6364;53.590;9.956;2023-07-30T13:26:14;7.97;;;2.60;;
12597;SDS011;6364;53.590;9.956;2023-07-30T13:28:39;6.60;;;2.60;;
12597;SDS011;6364;53.590;9.956;2023-07-30T13:31:04;6.93;;;2.30;;
12597;SDS011;6364;53.590;9.956;2023-07-30T13:33:30;6.40;;;2.22;;
12597;SDS011;6364;53.590;9.956;2023-07-30T13:35:55;5.28;;;2.30;;
12597;SDS011;6364;53.590;9.956;2023-07-30T13:38:20;10.60;;;2.33;;
12597;SDS011;6364;53.590;9.956;2023-07-30T13:40:47;7.95;;;2.67;;
12597;SDS011;6364;53.590;9.956;2023-07-30T13:43:12;7.72;;;2.58;;
12597;SDS011;6364;53.590;9.956;2023-07-30T13:45:37;9.60;;;3.10;;
12597;SDS011;6364;53.590;9.956;2023-07-30T13:48:03;5.25;;;2.60;;
12597;SDS011;6364;53.590;9.956;2023-07-30T13:50:28;13.90;;;3.03;;
12597;SDS011;6364;53.590;9.956;2023-07-30T13:52:54;8.45;;;3.10;;
12597;SDS011;6364;53.590;9.956;2023-07-30T13:55:19;10.00;;;3.40;;
12597;SDS011;6364;53.590;9.956;2023-07-30T13:57:45;12.90;;;3.85;;
12597;SDS011;6364;53.590;9.956;2023-07-30T14:00:10;7.57;;;2.70;;
12597;SDS011;6364;53.590;9.956;2023-07-30T14:02:37;8.88;;;3.40;;
12597;SDS011;6364;53.590;9.956;2023-07-30T14:05:02;7.65;;;3.00;;
12597;SDS011;6364;53.590;9.956;2023-07-30T14:07:28;6.72;;;2.65;;
12597;SDS011;6364;53.590;9.956;2023-07-30T14:09:53;7.57;;;3.08;;
12597;SDS011;6364;53.590;9.956;2023-07-30T14:12:18;5.65;;;2.70;;
12597;SDS011;6364;53.590;9.956;2023-07-30T14:14:44;5.53;;;2.58;;
12597;SDS011;6364;53.590;9.956;2023-07-30T14:17:09;4.75;;;2.00;;
12597;SDS011;6364;53.590;9.956;2023-07-30T14:19:35;4.95;;;1.67;;
12597;SDS011;6364;53.590;9.956;2023-07-30T14:22:00;3.92;;;1.60;;
12597;SDS011;6364;53.590;9.956;2023-07-30T14:24:26;4.95;;;1.83;;
12597;SDS011;6364;53.590;9.956;2023-07-30T14:26:51;3.85;;;1.77;;
12597;SDS011;6364;53.590;9.956;2023-07-30T14:29:17;6.18;;;1.65;;
12597;SDS011;6364;53.590;9.956;2023-07-30T14:31:42;5.03;;;1.73;;
12597;SDS011;6364;53.590;9.956;2023-07-30T14:34:07;4.25;;;1.30;;
12597;SDS011;6364;53.590;9.956;2023-07-30T14:36:33;5.55;;;1.58;;
12597;SDS011;6364;53.590;9.956;2023-07-30T14:38:58;4.45;;;1.48;;
12597;SDS011;6364;53.590;9.956;2023-07-30T14:41:23;4.60;;;1.80;;
12597;SDS011;6364;53.590;9.956;2023-07-30T14:43:49;4.93;;;1.73;;
12597;SDS011;6364;53.590;9.956;2023-07-30T14:46:14;5.68;;;1.40;;
12597;SDS011;6364;53.590;9.956;2023-07-30T14:48:41;5.60;;;1.73;;
12597;SDS011;6364;53.590;9.956;2023-07-30T14:51:07;4.32;;;1.40;;